Terminal Aerodrome Forecast
Issued by NWS

Home | Current Version | Previous Version | Text Only | Print | Product List | Glossary On
Versions: 1 2 3 4 5 6 7 8 9 10 11 12 13 14 15 16 17 18 19
000
FTUS43 KDMX 160802 AAA
TAFOTM
TAF AMD
KOTM 160802Z 1608/1706 09006KT 2SM -FZRA OVC006
     FM161100 08007KT 2SM FZRA OVC003
     FM161700 09009G16KT 2SM RA OVC003
     FM170400 03005KT 1/2SM RA OVC002=

USA.gov is the U.S. government's official web portal to all federal, state and local government web resources and services.